createdAt,value
2023-05-01T00:00:25.855Z,2.93
2023-05-01T00:02:55.990Z,2.73
2023-05-01T00:05:22.852Z,2.87
2023-05-01T00:07:52.110Z,3.27
2023-05-01T00:10:20.392Z,3.00
2023-05-01T00:12:49.660Z,3.40
2023-05-01T00:15:18.786Z,2.83
2023-05-01T00:17:45.931Z,2.83
2023-05-01T00:20:13.002Z,3.13
2023-05-01T00:22:39.909Z,3.50
2023-05-01T00:25:10.799Z,3.13
2023-05-01T00:27:37.634Z,3.30
2023-05-01T00:30:11.984Z,3.73
2023-05-01T00:32:41.735Z,2.90
2023-05-01T00:35:11.151Z,3.10
2023-05-01T00:37:41.071Z,3.37
2023-05-01T00:40:10.318Z,4.10
2023-05-01T00:42:39.561Z,3.03
2023-05-01T00:45:09.042Z,2.83
2023-05-01T00:47:38.747Z,2.83
2023-05-01T00:50:08.611Z,3.20
2023-05-01T00:52:35.931Z,2.87
2023-05-01T00:55:02.821Z,3.40
2023-05-01T00:57:32.033Z,3.33
2023-05-01T01:00:01.427Z,2.67
2023-05-01T01:02:33.125Z,3.20
2023-05-01T01:05:05.324Z,3.13
2023-05-01T01:07:47.220Z,2.03
2023-05-01T01:10:33.690Z,2.70
2023-05-01T01:13:07.596Z,3.20
2023-05-01T01:15:39.861Z,3.23
2023-05-01T01:18:29.848Z,2.43
2023-05-01T01:21:16.324Z,2.70
2023-05-01T01:23:53.751Z,3.47
2023-05-01T01:26:39.482Z,4.97
2023-05-01T01:29:52.559Z,3.63
2023-05-01T01:33:01.572Z,3.67
2023-05-01T01:35:31.260Z,2.83
2023-05-01T01:38:16.227Z,3.00
2023-05-01T01:40:57.145Z,3.17
2023-05-01T01:43:27.724Z,2.40
2023-05-01T01:46:03.797Z,3.10
2023-05-01T01:48:35.106Z,2.70
2023-05-01T01:51:10.783Z,2.63
2023-05-01T01:53:39.298Z,3.20
2023-05-01T01:56:10.357Z,4.20
2023-05-01T01:58:42.100Z,3.27
2023-05-01T02:01:14.871Z,3.23
2023-05-01T02:03:47.397Z,2.93
2023-05-01T02:06:20.124Z,3.33
2023-05-01T02:08:55.997Z,2.87
2023-05-01T02:11:27.351Z,3.57
2023-05-01T02:14:01.003Z,2.77
2023-05-01T02:16:30.329Z,2.83
2023-05-01T02:19:04.562Z,3.00
2023-05-01T02:21:34.948Z,3.00
2023-05-01T02:24:02.536Z,3.30
2023-05-01T02:26:43.582Z,2.90
2023-05-01T02:29:13.019Z,2.80
2023-05-01T02:31:40.955Z,2.63
2023-05-01T02:34:10.097Z,2.30
2023-05-01T02:36:39.167Z,3.23
2023-05-01T02:39:08.700Z,3.50
2023-05-01T02:41:42.112Z,3.50
2023-05-01T02:44:11.595Z,3.20
2023-05-01T02:46:47.330Z,3.53
2023-05-01T02:49:19.963Z,3.40
2023-05-01T02:51:47.474Z,2.80
2023-05-01T02:54:18.247Z,3.73
2023-05-01T02:56:48.135Z,2.83
2023-05-01T02:59:19.554Z,3.57
2023-05-01T03:01:48.953Z,3.13
2023-05-01T03:04:20.488Z,3.37
2023-05-01T03:06:49.802Z,3.60
2023-05-01T03:09:21.355Z,3.87
2023-05-01T03:11:48.698Z,2.93
2023-05-01T03:14:17.965Z,3.27
2023-05-01T03:16:44.841Z,3.37
2023-05-01T03:19:11.686Z,3.77
2023-05-01T03:21:43.308Z,3.67
2023-05-01T03:24:12.504Z,3.33
2023-05-01T03:26:45.169Z,3.20
2023-05-01T03:29:13.548Z,3.30
2023-05-01T03:31:43.059Z,3.03
2023-05-01T03:34:11.382Z,2.80
2023-05-01T03:36:43.948Z,3.60
2023-05-01T03:39:11.317Z,3.10
2023-05-01T03:41:59.192Z,4.07
2023-05-01T03:44:32.924Z,3.20
2023-05-01T03:47:02.962Z,3.30
2023-05-01T03:49:37.037Z,3.93
2023-05-01T03:52:06.586Z,3.90
2023-05-01T03:54:35.840Z,3.90
2023-05-01T03:57:18.329Z,3.53
2023-05-01T03:59:50.173Z,3.67
2023-05-01T04:02:21.398Z,3.43
2023-05-01T04:04:48.293Z,3.50
2023-05-01T04:07:17.383Z,3.90
2023-05-01T04:09:51.363Z,4.23
2023-05-01T04:12:20.456Z,3.20
2023-05-01T04:14:49.601Z,3.57
2023-05-01T04:17:19.018Z,4.23
2023-05-01T04:19:55.000Z,2.73
2023-05-01T04:22:25.145Z,4.03
2023-05-01T04:24:53.099Z,3.30
2023-05-01T04:27:25.112Z,3.20
2023-05-01T04:29:57.231Z,4.10
2023-05-01T04:32:24.387Z,3.37
2023-05-01T04:34:53.811Z,3.30
2023-05-01T04:37:21.697Z,3.90
2023-05-01T04:39:51.292Z,4.27
2023-05-01T04:42:23.033Z,3.13
2023-05-01T04:44:57.769Z,3.40
2023-05-01T04:47:28.952Z,3.93
2023-05-01T04:50:00.591Z,3.60
2023-05-01T04:52:33.462Z,3.93
2023-05-01T04:55:03.903Z,3.47
2023-05-01T04:57:37.404Z,5.00
2023-05-01T05:00:10.025Z,4.20
2023-05-01T05:02:47.493Z,4.43
2023-05-01T05:05:17.617Z,4.73
2023-05-01T05:07:52.596Z,4.40
2023-05-01T05:10:27.971Z,3.73
2023-05-01T05:13:14.653Z,4.57
2023-05-01T05:15:41.535Z,5.17
2023-05-01T05:18:10.335Z,4.93
2023-05-01T05:20:42.306Z,5.77
2023-05-01T05:23:15.096Z,4.77
2023-05-01T05:25:49.308Z,4.30
2023-05-01T05:28:18.643Z,4.13
2023-05-01T05:30:54.528Z,5.03
2023-05-01T05:33:27.349Z,4.47
2023-05-01T05:36:01.764Z,4.63
2023-05-01T05:38:36.259Z,4.20
2023-05-01T05:41:07.218Z,4.07
2023-05-01T05:43:33.988Z,4.87
2023-05-01T05:46:01.143Z,4.67
2023-05-01T05:48:31.509Z,4.10
2023-05-01T05:51:00.789Z,4.80
2023-05-01T05:53:30.116Z,4.60
2023-05-01T05:55:59.110Z,5.00
2023-05-01T05:58:26.133Z,5.40
2023-05-01T06:01:00.995Z,5.03
2023-05-01T06:03:31.172Z,5.63
2023-05-01T06:06:01.915Z,4.27
2023-05-01T06:08:31.298Z,4.43
2023-05-01T06:10:59.104Z,4.83
2023-05-01T06:13:28.269Z,4.77
2023-05-01T06:16:00.822Z,4.63
2023-05-01T06:18:27.857Z,5.40
2023-05-01T06:20:57.250Z,5.47
2023-05-01T06:23:24.324Z,4.50
2023-05-01T06:26:09.303Z,4.20
2023-05-01T06:28:43.412Z,4.90
2023-05-01T06:31:10.539Z,5.70
2023-05-01T06:33:48.306Z,5.77
2023-05-01T06:36:38.347Z,5.83
2023-05-01T06:39:05.260Z,5.47
2023-05-01T06:41:38.860Z,6.10
2023-05-01T06:44:08.072Z,5.63
2023-05-01T06:46:38.292Z,4.20
2023-05-01T06:49:09.724Z,5.50
2023-05-01T06:51:39.557Z,5.23
2023-05-01T06:54:09.008Z,5.17
2023-05-01T06:56:38.118Z,7.10
2023-05-01T06:59:07.257Z,5.13
2023-05-01T07:01:35.616Z,5.50
2023-05-01T07:04:04.146Z,5.03
2023-05-01T07:06:33.690Z,4.27
2023-05-01T07:09:05.472Z,4.40
2023-05-01T07:11:34.862Z,4.60
2023-05-01T07:14:08.779Z,4.90
2023-05-01T07:16:40.547Z,5.10
2023-05-01T07:19:13.712Z,5.30
2023-05-01T07:21:45.631Z,4.33
2023-05-01T07:24:17.551Z,4.10
2023-05-01T07:26:46.743Z,4.07
2023-05-01T07:29:16.755Z,5.50
2023-05-01T07:31:46.542Z,5.50
2023-05-01T07:34:17.536Z,5.20
2023-05-01T07:36:46.876Z,4.60
2023-05-01T07:39:17.780Z,4.63
2023-05-01T07:41:49.535Z,4.70
2023-05-01T07:44:18.645Z,5.47
2023-05-01T07:46:47.993Z,4.10
2023-05-01T07:49:19.557Z,4.43
2023-05-01T07:51:49.874Z,5.20
2023-05-01T07:54:22.199Z,4.20
2023-05-01T07:56:51.096Z,4.27
2023-05-01T07:59:23.194Z,4.70
2023-05-01T08:01:57.363Z,5.90
2023-05-01T08:04:28.372Z,5.30
2023-05-01T08:06:57.676Z,5.10
2023-05-01T08:09:32.156Z,3.97
2023-05-01T08:12:03.424Z,4.70
2023-05-01T08:14:34.766Z,4.57
2023-05-01T08:17:01.621Z,4.23
2023-05-01T08:19:30.741Z,5.67
2023-05-01T08:22:00.069Z,5.00
2023-05-01T08:24:27.524Z,4.13
2023-05-01T08:26:57.108Z,4.30
2023-05-01T08:29:31.060Z,3.87
2023-05-01T08:32:05.131Z,4.40
2023-05-01T08:34:36.564Z,4.60
2023-05-01T08:37:08.809Z,4.87
2023-05-01T08:39:38.158Z,4.77
2023-05-01T08:42:08.442Z,4.63
2023-05-01T08:44:40.845Z,4.93
2023-05-01T08:47:12.784Z,4.10
2023-05-01T08:49:48.075Z,4.63
2023-05-01T08:52:15.565Z,3.90
2023-05-01T08:54:47.191Z,4.37
2023-05-01T08:57:16.486Z,3.50
2023-05-01T08:59:44.891Z,5.47
2023-05-01T09:02:16.240Z,3.93
2023-05-01T09:04:43.531Z,4.03
2023-05-01T09:07:13.027Z,5.00
2023-05-01T09:09:42.268Z,4.40
2023-05-01T09:12:15.106Z,4.40
2023-05-01T09:14:44.061Z,3.87
2023-05-01T09:17:14.349Z,4.33
2023-05-01T09:19:43.980Z,5.00
2023-05-01T09:22:13.167Z,4.93
2023-05-01T09:24:42.272Z,4.50
2023-05-01T09:27:10.012Z,5.30
2023-05-01T09:29:42.603Z,4.17
2023-05-01T09:32:24.956Z,3.90
2023-05-01T09:34:58.350Z,3.80
2023-05-01T09:37:31.500Z,5.20
2023-05-01T09:40:16.251Z,5.27
2023-05-01T09:42:56.294Z,4.70
2023-05-01T09:45:29.175Z,5.23
2023-05-01T09:48:13.704Z,4.50
2023-05-01T09:50:47.793Z,4.30
2023-05-01T09:53:15.069Z,4.70
2023-05-01T09:56:03.270Z,5.33
2023-05-01T09:58:30.234Z,5.40
2023-05-01T10:01:00.457Z,4.30
2023-05-01T10:03:32.927Z,4.80
2023-05-01T10:06:02.219Z,4.83
2023-05-01T10:08:55.969Z,4.30
2023-05-01T10:11:27.144Z,5.70
2023-05-01T10:14:12.469Z,4.50
2023-05-01T10:16:41.664Z,5.00
2023-05-01T10:19:11.027Z,5.13
2023-05-01T10:21:40.228Z,4.17
2023-05-01T10:24:15.388Z,5.00
2023-05-01T10:26:45.078Z,4.90
2023-05-01T10:29:18.944Z,4.97
2023-05-01T10:31:45.845Z,5.47
2023-05-01T10:34:18.437Z,4.60
2023-05-01T10:36:55.576Z,4.80
2023-05-01T10:39:35.036Z,3.80
2023-05-01T10:42:11.412Z,4.47
2023-05-01T10:44:41.989Z,5.10
2023-05-01T10:47:34.900Z,4.90
2023-05-01T10:50:07.316Z,6.70
2023-05-01T10:53:11.983Z,5.60
2023-05-01T10:55:46.262Z,6.10
2023-05-01T10:58:41.056Z,7.83
2023-05-01T11:01:40.769Z,6.40
2023-05-01T11:04:27.517Z,6.47
2023-05-01T11:07:08.388Z,7.50
2023-05-01T11:09:41.429Z,7.50
2023-05-01T11:12:15.257Z,7.77
2023-05-01T11:15:08.918Z,7.60
2023-05-01T11:17:44.217Z,7.80
2023-05-01T11:20:13.350Z,6.50
2023-05-01T11:22:49.184Z,7.03
2023-05-01T11:25:20.853Z,7.73
2023-05-01T11:27:59.067Z,7.57
2023-05-01T11:30:39.542Z,6.80
2023-05-01T11:33:11.689Z,7.70
2023-05-01T11:35:44.063Z,9.87
2023-05-01T11:38:20.480Z,11.37
2023-05-01T11:40:54.592Z,7.50
2023-05-01T11:43:27.050Z,8.03
2023-05-01T11:46:02.034Z,7.57
2023-05-01T11:48:32.703Z,6.90
2023-05-01T11:51:11.924Z,6.17
2023-05-01T11:53:41.563Z,7.77
2023-05-01T11:56:26.702Z,8.37
2023-05-01T11:59:03.776Z,7.20
2023-05-01T12:01:40.564Z,7.60
2023-05-01T12:04:08.826Z,7.50
2023-05-01T12:06:44.769Z,7.60
2023-05-01T12:09:24.457Z,7.97
2023-05-01T12:12:02.095Z,8.57
2023-05-01T12:14:31.551Z,8.73
2023-05-01T12:17:06.132Z,7.97
2023-05-01T12:19:46.142Z,7.83
2023-05-01T12:22:17.924Z,8.47
2023-05-01T12:24:56.560Z,8.20
2023-05-01T12:27:25.960Z,8.13
2023-05-01T12:29:55.252Z,6.90
2023-05-01T12:32:32.651Z,8.07
2023-05-01T12:34:59.783Z,8.40
2023-05-01T12:37:32.451Z,8.30
2023-05-01T12:39:59.270Z,9.27
2023-05-01T12:42:29.139Z,9.30
2023-05-01T12:45:04.264Z,7.93
2023-05-01T12:47:41.711Z,7.90
2023-05-01T12:50:10.167Z,8.30
2023-05-01T12:52:37.039Z,8.70
2023-05-01T12:55:05.582Z,7.70
2023-05-01T12:57:54.124Z,7.67
2023-05-01T13:00:21.394Z,8.70
2023-05-01T13:02:51.376Z,7.97
2023-05-01T13:05:25.648Z,8.03
2023-05-01T13:07:52.627Z,7.77
2023-05-01T13:10:31.822Z,8.60
2023-05-01T13:12:58.835Z,9.17
2023-05-01T13:15:28.185Z,7.53
2023-05-01T13:18:06.427Z,8.77
2023-05-01T13:20:39.232Z,7.80
2023-05-01T13:23:14.592Z,7.70
2023-05-01T13:25:44.698Z,9.20
2023-05-01T13:28:18.138Z,7.83
2023-05-01T13:30:47.534Z,7.27
2023-05-01T13:33:14.617Z,6.60
2023-05-01T13:35:41.697Z,8.53
2023-05-01T13:38:13.833Z,7.60
2023-05-01T13:40:43.216Z,7.17
2023-05-01T13:43:22.556Z,6.73
2023-05-01T13:46:00.673Z,6.77
2023-05-01T13:48:31.175Z,8.00
2023-05-01T13:51:02.783Z,7.10
2023-05-01T13:53:32.054Z,7.03
2023-05-01T13:56:03.817Z,7.00
2023-05-01T13:58:33.506Z,6.80
2023-05-01T14:01:06.520Z,7.90
2023-05-01T14:03:44.408Z,7.10
2023-05-01T14:06:14.361Z,6.40
2023-05-01T14:08:50.100Z,6.70
2023-05-01T14:11:20.270Z,7.60
2023-05-01T14:13:51.257Z,6.70
2023-05-01T14:16:26.084Z,6.60
2023-05-01T14:18:57.808Z,6.67
2023-05-01T14:21:32.123Z,6.97
2023-05-01T14:23:59.192Z,6.57
2023-05-01T14:26:30.899Z,7.17
2023-05-01T14:29:02.462Z,7.77
2023-05-01T14:31:32.450Z,7.07
2023-05-01T14:34:06.466Z,6.73
2023-05-01T14:36:35.891Z,6.10
2023-05-01T14:39:04.171Z,6.67
2023-05-01T14:41:39.126Z,6.30
2023-05-01T14:44:14.165Z,6.30
2023-05-01T14:46:47.413Z,5.80
2023-05-01T14:49:19.669Z,6.40
2023-05-01T14:51:48.891Z,6.47
2023-05-01T14:54:16.304Z,7.00
2023-05-01T14:56:48.748Z,6.60
2023-05-01T14:59:17.933Z,5.90
2023-05-01T15:01:47.348Z,6.47
2023-05-01T15:04:19.961Z,6.90
2023-05-01T15:06:49.127Z,6.30
2023-05-01T15:09:18.103Z,6.37
2023-05-01T15:11:47.409Z,6.13
2023-05-01T15:14:21.734Z,6.17
2023-05-01T15:16:53.844Z,5.57
2023-05-01T15:19:28.211Z,4.80
2023-05-01T15:21:58.005Z,5.00
2023-05-01T15:24:27.177Z,6.07
2023-05-01T15:26:53.923Z,6.17
2023-05-01T15:29:23.194Z,5.60
2023-05-01T15:32:04.550Z,6.10
2023-05-01T15:34:41.467Z,5.93
2023-05-01T15:37:10.756Z,5.23
2023-05-01T15:39:40.567Z,4.90
2023-05-01T15:42:09.924Z,5.00
2023-05-01T15:44:43.515Z,5.27
2023-05-01T15:47:13.311Z,4.90
2023-05-01T15:49:40.242Z,6.13
2023-05-01T15:52:09.302Z,4.70
2023-05-01T15:54:41.003Z,5.80
2023-05-01T15:57:13.096Z,5.63
2023-05-01T15:59:45.414Z,5.30
2023-05-01T16:02:14.700Z,5.50
2023-05-01T16:04:48.165Z,5.30
2023-05-01T16:07:17.841Z,5.90
2023-05-01T16:09:52.658Z,4.90
2023-05-01T16:12:24.417Z,6.00
2023-05-01T16:14:54.157Z,5.33
2023-05-01T16:17:21.026Z,5.80
2023-05-01T16:19:52.902Z,5.20
2023-05-01T16:22:21.464Z,5.10
2023-05-01T16:24:52.535Z,5.70
2023-05-01T16:27:19.468Z,6.23
2023-05-01T16:29:48.797Z,4.90
2023-05-01T16:32:17.260Z,4.90
2023-05-01T16:34:44.350Z,5.83
2023-05-01T16:37:13.785Z,5.70
2023-05-01T16:39:40.680Z,5.10
2023-05-01T16:42:14.475Z,4.63
2023-05-01T16:44:41.687Z,4.70
2023-05-01T16:47:16.751Z,5.63
2023-05-01T16:49:43.653Z,5.67
2023-05-01T16:52:14.370Z,5.10
2023-05-01T16:54:48.681Z,4.73
2023-05-01T16:57:18.424Z,4.97
2023-05-01T16:59:52.548Z,5.30
2023-05-01T17:02:19.958Z,4.70
2023-05-01T17:04:52.092Z,5.20
2023-05-01T17:07:21.406Z,5.10
2023-05-01T17:09:53.022Z,4.60
2023-05-01T17:12:28.025Z,4.30
2023-05-01T17:14:57.313Z,5.33
2023-05-01T17:17:25.123Z,4.77
2023-05-01T17:19:54.155Z,5.43
2023-05-01T17:22:21.047Z,6.43
2023-05-01T17:24:52.718Z,5.93
2023-05-01T17:27:21.916Z,5.10
2023-05-01T17:29:51.035Z,5.20
2023-05-01T17:32:33.590Z,6.07
2023-05-01T17:35:10.951Z,5.20
2023-05-01T17:37:40.368Z,5.73
2023-05-01T17:40:12.964Z,6.43
2023-05-01T17:42:44.637Z,5.73
2023-05-01T17:45:16.923Z,5.17
2023-05-01T17:47:48.462Z,6.03
2023-05-01T17:50:15.629Z,7.07
2023-05-01T17:52:49.972Z,6.97
2023-05-01T17:55:19.819Z,5.90
2023-05-01T17:57:53.856Z,6.80
2023-05-01T18:00:31.488Z,6.73
2023-05-01T18:03:00.804Z,7.33
2023-05-01T18:05:32.143Z,6.77
2023-05-01T18:08:06.071Z,6.43
2023-05-01T18:10:35.542Z,7.23
2023-05-01T18:13:04.899Z,6.80
2023-05-01T18:15:33.994Z,6.13
2023-05-01T18:18:05.583Z,5.93
2023-05-01T18:20:32.487Z,5.10
2023-05-01T18:22:59.420Z,6.20
2023-05-01T18:25:28.531Z,5.23
2023-05-01T18:28:00.438Z,4.70
2023-05-01T18:30:29.458Z,5.27
2023-05-01T18:32:58.690Z,5.43
2023-05-01T18:35:33.534Z,5.17
2023-05-01T18:38:02.838Z,5.57
2023-05-01T18:40:32.128Z,5.90
2023-05-01T18:43:01.819Z,5.00
2023-05-01T18:45:31.153Z,4.40
2023-05-01T18:48:01.109Z,4.47
2023-05-01T18:50:30.443Z,4.30
2023-05-01T18:52:59.725Z,4.50
2023-05-01T18:55:31.139Z,3.60
2023-05-01T18:58:02.122Z,4.33
2023-05-01T19:00:31.352Z,4.60
2023-05-01T19:02:59.060Z,4.13
2023-05-01T19:05:30.723Z,4.13
2023-05-01T19:08:01.973Z,3.90
2023-05-01T19:10:28.896Z,4.37
2023-05-01T19:13:00.364Z,4.30
2023-05-01T19:15:31.927Z,4.40
2023-05-01T19:18:01.166Z,4.90
2023-05-01T19:20:32.970Z,3.60
2023-05-01T19:23:00.027Z,4.17
2023-05-01T19:25:29.598Z,3.40
2023-05-01T19:27:58.494Z,3.40
2023-05-01T19:30:31.074Z,4.03
2023-05-01T19:33:00.393Z,3.57
2023-05-01T19:35:32.048Z,3.40
2023-05-01T19:38:01.620Z,3.23
2023-05-01T19:40:30.883Z,3.37
2023-05-01T19:43:00.489Z,3.53
2023-05-01T19:45:27.326Z,3.80
2023-05-01T19:47:59.033Z,3.03
2023-05-01T19:50:33.492Z,3.60
2023-05-01T19:53:00.353Z,2.97
2023-05-01T19:55:29.434Z,3.20
2023-05-01T19:57:59.266Z,2.90
2023-05-01T20:00:27.718Z,2.77
2023-05-01T20:03:00.572Z,2.93
2023-05-01T20:05:32.673Z,2.80
2023-05-01T20:08:02.239Z,2.97
2023-05-01T20:10:29.087Z,3.10
2023-05-01T20:13:00.785Z,3.40
2023-05-01T20:15:33.120Z,2.80
2023-05-01T20:18:07.378Z,2.60
2023-05-01T20:20:38.780Z,3.60
2023-05-01T20:23:20.481Z,2.70
2023-05-01T20:25:55.650Z,2.50
2023-05-01T20:28:24.985Z,2.10
2023-05-01T20:30:51.922Z,2.40
2023-05-01T20:33:23.049Z,2.57
2023-05-01T20:35:53.196Z,2.57
2023-05-01T20:38:22.748Z,2.90
2023-05-01T20:40:49.575Z,2.23
2023-05-01T20:43:21.228Z,2.57
2023-05-01T20:45:50.340Z,2.50
2023-05-01T20:48:19.867Z,2.30
2023-05-01T20:50:51.289Z,2.60
2023-05-01T20:53:20.347Z,2.43
2023-05-01T20:55:52.441Z,2.40
2023-05-01T20:58:26.353Z,2.37
2023-05-01T21:00:56.069Z,2.27
2023-05-01T21:03:25.262Z,2.50
2023-05-01T21:05:52.130Z,2.80
2023-05-01T21:08:24.245Z,3.03
2023-05-01T21:10:51.065Z,2.10
2023-05-01T21:13:21.536Z,2.10
2023-05-01T21:15:53.817Z,2.80
2023-05-01T21:18:27.667Z,1.93
2023-05-01T21:20:58.268Z,2.23
2023-05-01T21:23:29.862Z,2.20
2023-05-01T21:26:01.614Z,2.50
2023-05-01T21:28:33.130Z,1.93
2023-05-01T21:30:59.999Z,2.70
2023-05-01T21:33:29.722Z,2.17
2023-05-01T21:36:01.339Z,2.27
2023-05-01T21:38:31.387Z,2.27
2023-05-01T21:41:06.265Z,2.40
2023-05-01T21:43:37.602Z,1.97
2023-05-01T21:46:17.177Z,2.40
2023-05-01T21:48:54.251Z,2.00
2023-05-01T21:51:33.110Z,2.37
2023-05-01T21:54:04.471Z,2.50
2023-05-01T21:56:33.673Z,2.80
2023-05-01T21:59:02.475Z,1.90
2023-05-01T22:01:29.706Z,2.23
2023-05-01T22:04:01.267Z,2.23
2023-05-01T22:06:30.573Z,2.50
2023-05-01T22:08:57.420Z,1.90
2023-05-01T22:11:24.496Z,2.60
2023-05-01T22:13:53.525Z,2.03
2023-05-01T22:16:24.961Z,2.50
2023-05-01T22:18:54.143Z,2.17
2023-05-01T22:21:23.601Z,2.30
2023-05-01T22:23:55.597Z,2.50
2023-05-01T22:26:24.700Z,2.40
2023-05-01T22:28:51.515Z,1.97
2023-05-01T22:31:21.415Z,2.03
2023-05-01T22:33:53.605Z,2.70
2023-05-01T22:36:25.231Z,2.87
2023-05-01T22:38:57.488Z,2.57
2023-05-01T22:41:29.167Z,2.30
2023-05-01T22:43:59.083Z,2.30
2023-05-01T22:46:28.314Z,2.17
2023-05-01T22:48:55.228Z,2.10
2023-05-01T22:51:26.782Z,2.20
2023-05-01T22:53:53.566Z,2.60
2023-05-01T22:56:23.386Z,2.20
2023-05-01T22:58:55.632Z,2.03
2023-05-01T23:01:25.456Z,1.73
2023-05-01T23:03:52.368Z,2.20
2023-05-01T23:06:21.934Z,2.10
2023-05-01T23:08:59.138Z,2.53
2023-05-01T23:11:32.623Z,1.93
2023-05-01T23:14:04.484Z,2.40
2023-05-01T23:16:39.897Z,2.00
2023-05-01T23:19:23.240Z,1.90
2023-05-01T23:22:08.536Z,3.07
2023-05-01T23:24:47.760Z,2.60
2023-05-01T23:27:18.550Z,2.90
2023-05-01T23:30:02.756Z,3.00
2023-05-01T23:32:31.448Z,2.30
2023-05-01T23:35:15.210Z,2.37
2023-05-01T23:37:46.451Z,2.77
2023-05-01T23:40:13.268Z,2.70
2023-05-01T23:42:40.382Z,2.80
2023-05-01T23:45:10.598Z,2.70
2023-05-01T23:47:40.190Z,2.10
2023-05-01T23:50:09.723Z,2.80
2023-05-01T23:52:39.252Z,2.47
2023-05-01T23:55:08.359Z,2.67
2023-05-01T23:57:37.592Z,2.87
